N619FT KFSM-KLIT
Flight info
| Callsign | N619FT |
|---|---|
| Flight time | N/A |
| Altitude | 15000 |
| Route | SHERR |
| Aircraft | SF50/L-SDGRWY/L |
Departure
| Time | 2026-04-14 02:34 |
|---|---|
| Airport | Fort Smith Regional Airport (KFSM) |
Arrival
| Time | N/A |
|---|---|
| Airport | Bill & Hillary Clinton National Airport/Adams Field (KLIT) |
| Time | Latitude | Longitude | Altitude | Speed | Heading |
|---|---|---|---|---|---|
| 2026-04-14 02:13 | 35.33627 | -94.37436 | 454 ft | 0 kts | 351° |
| 2026-04-14 02:27 | 35.33629 | -94.37430 | 454 ft | 0 kts | 143° |
| 2026-04-14 02:28 | 35.33620 | -94.37415 | 454 ft | 4 kts | 128° |
| 2026-04-14 02:28 | 35.33593 | -94.37373 | 452 ft | 0 kts | 122° |
| 2026-04-14 02:28 | 35.33591 | -94.37369 | 452 ft | 0 kts | 126° |
| 2026-04-14 02:28 | 35.33591 | -94.37365 | 452 ft | 0 kts | 80° |
| 2026-04-14 02:29 | 35.33593 | -94.37351 | 452 ft | 6 kts | 87° |
| 2026-04-14 02:29 | 35.33586 | -94.37279 | 450 ft | 8 kts | 100° |
| 2026-04-14 02:29 | 35.33590 | -94.37217 | 449 ft | 5 kts | 85° |
| 2026-04-14 02:29 | 35.33601 | -94.37128 | 449 ft | 11 kts | 75° |
| 2026-04-14 02:30 | 35.33612 | -94.37048 | 448 ft | 8 kts | 78° |
| 2026-04-14 02:30 | 35.33619 | -94.36990 | 447 ft | 0 kts | 83° |
| 2026-04-14 02:30 | 35.33620 | -94.36979 | 446 ft | 7 kts | 82° |
| 2026-04-14 02:30 | 35.33633 | -94.36871 | 444 ft | 18 kts | 84° |
| 2026-04-14 02:31 | 35.33657 | -94.36678 | 441 ft | 27 kts | 81° |
| 2026-04-14 02:31 | 35.33692 | -94.36447 | 440 ft | 26 kts | 83° |
| 2026-04-14 02:31 | 35.33715 | -94.36236 | 436 ft | 23 kts | 82° |
| 2026-04-14 02:31 | 35.33733 | -94.36047 | 434 ft | 20 kts | 83° |
| 2026-04-14 02:32 | 35.33755 | -94.35903 | 434 ft | 16 kts | 85° |
| 2026-04-14 02:32 | 35.33768 | -94.35807 | 434 ft | 9 kts | 76° |
| 2026-04-14 02:32 | 35.33783 | -94.35688 | 434 ft | 19 kts | 83° |
| 2026-04-14 02:32 | 35.33799 | -94.35553 | 434 ft | 12 kts | 108° |
| 2026-04-14 02:33 | 35.33779 | -94.35529 | 434 ft | 0 kts | 154° |
| 2026-04-14 02:33 | 35.33744 | -94.35518 | 434 ft | 9 kts | 181° |
| 2026-04-14 02:33 | 35.33683 | -94.35657 | 434 ft | 47 kts | 257° |
| 2026-04-14 02:34 | 35.33483 | -94.37270 | 600 ft | 141 kts | 261° |
| 2026-04-14 02:34 | 35.33386 | -94.38515 | 988 ft | 154 kts | 269° |
| 2026-04-14 02:34 | 35.33500 | -94.39841 | 1444 ft | 159 kts | 271° |
| 2026-04-14 02:34 | 35.33665 | -94.41197 | 1931 ft | 162 kts | 271° |
| 2026-04-14 02:35 | 35.33648 | -94.42444 | 2449 ft | 147 kts | 238° |
| 2026-04-14 02:35 | 35.32901 | -94.43197 | 3068 ft | 147 kts | 193° |
| 2026-04-14 02:35 | 35.31927 | -94.42906 | 3724 ft | 155 kts | 149° |
| 2026-04-14 02:35 | 35.31194 | -94.42024 | 4302 ft | 153 kts | 144° |
| 2026-04-14 02:36 | 35.30433 | -94.41110 | 4887 ft | 161 kts | 144° |
| 2026-04-14 02:36 | 35.29651 | -94.40173 | 5481 ft | 166 kts | 144° |
| 2026-04-14 02:36 | 35.28825 | -94.39178 | 6100 ft | 170 kts | 144° |
| 2026-04-14 02:36 | 35.27983 | -94.38173 | 6719 ft | 173 kts | 144° |
| 2026-04-14 02:37 | 35.27170 | -94.37206 | 7301 ft | 176 kts | 143° |
| 2026-04-14 02:37 | 35.26205 | -94.36085 | 7500 ft | 204 kts | 143° |
| 2026-04-14 02:37 | 35.25120 | -94.34861 | 7533 ft | 223 kts | 143° |
| 2026-04-14 02:37 | 35.23924 | -94.33534 | 7545 ft | 238 kts | 143° |
| 2026-04-14 02:38 | 35.22694 | -94.32178 | 7535 ft | 238 kts | 143° |
| 2026-04-14 02:38 | 35.21486 | -94.30807 | 7519 ft | 240 kts | 136° |
| 2026-04-14 02:38 | 35.20953 | -94.28856 | 7530 ft | 253 kts | 91° |
| 2026-04-14 02:38 | 35.20899 | -94.26717 | 7544 ft | 251 kts | 105° |
| 2026-04-14 02:39 | 35.20533 | -94.24701 | 7543 ft | 253 kts | 108° |
| 2026-04-14 02:39 | 35.20082 | -94.22611 | 7537 ft | 255 kts | 109° |
| 2026-04-14 02:39 | 35.19609 | -94.20495 | 7544 ft | 256 kts | 109° |
| 2026-04-14 02:39 | 35.19136 | -94.18401 | 7541 ft | 257 kts | 109° |
| 2026-04-14 02:40 | 35.18681 | -94.16391 | 7534 ft | 258 kts | 109° |
| 2026-04-14 02:40 | 35.18205 | -94.14287 | 7546 ft | 259 kts | 109° |
| 2026-04-14 02:40 | 35.17724 | -94.12169 | 7539 ft | 259 kts | 109° |
| 2026-04-14 02:40 | 35.17243 | -94.10048 | 7540 ft | 261 kts | 109° |
| 2026-04-14 02:41 | 35.16753 | -94.07893 | 7543 ft | 263 kts | 109° |
| 2026-04-14 02:41 | 35.16301 | -94.05913 | 7541 ft | 264 kts | 109° |
| 2026-04-14 02:41 | 35.15827 | -94.03835 | 7544 ft | 265 kts | 109° |
| 2026-04-14 02:41 | 35.15331 | -94.01652 | 7544 ft | 266 kts | 109° |
| 2026-04-14 02:42 | 35.14832 | -93.99468 | 7545 ft | 267 kts | 109° |
| 2026-04-14 02:42 | 35.14332 | -93.97274 | 7548 ft | 267 kts | 109° |
| 2026-04-14 02:42 | 35.13833 | -93.95096 | 7555 ft | 267 kts | 109° |
| 2026-04-14 02:42 | 35.13332 | -93.92902 | 7557 ft | 268 kts | 109° |
| 2026-04-14 02:43 | 35.12833 | -93.90720 | 7557 ft | 270 kts | 109° |
| 2026-04-14 02:43 | 35.12331 | -93.88539 | 7566 ft | 280 kts | 109° |
| 2026-04-14 02:43 | 35.11810 | -93.86262 | 7565 ft | 282 kts | 109° |
| 2026-04-14 02:43 | 35.11314 | -93.84104 | 7564 ft | 283 kts | 109° |
| 2026-04-14 02:44 | 35.10816 | -93.81939 | 7565 ft | 283 kts | 108° |
| 2026-04-14 02:44 | 35.10312 | -93.79745 | 7568 ft | 283 kts | 109° |
| 2026-04-14 02:44 | 35.09778 | -93.77430 | 7568 ft | 283 kts | 109° |
| 2026-04-14 02:44 | 35.09243 | -93.75104 | 7574 ft | 282 kts | 109° |
| 2026-04-14 02:45 | 35.08725 | -93.72858 | 7565 ft | 275 kts | 109° |
| 2026-04-14 02:45 | 35.08211 | -93.70627 | 7561 ft | 270 kts | 109° |
| 2026-04-14 02:45 | 35.07702 | -93.68433 | 7565 ft | 267 kts | 109° |
| 2026-04-14 02:45 | 35.07201 | -93.66269 | 7564 ft | 267 kts | 109° |
| 2026-04-14 02:46 | 35.06695 | -93.64077 | 7563 ft | 266 kts | 109° |
| 2026-04-14 02:46 | 35.06193 | -93.61916 | 7562 ft | 266 kts | 109° |
| 2026-04-14 02:46 | 35.05693 | -93.59763 | 7559 ft | 266 kts | 109° |
| 2026-04-14 02:46 | 35.05192 | -93.57599 | 7559 ft | 265 kts | 109° |
| 2026-04-14 02:47 | 35.04690 | -93.55434 | 7559 ft | 266 kts | 109° |
| 2026-04-14 02:47 | 35.04185 | -93.53266 | 7558 ft | 266 kts | 109° |
| 2026-04-14 02:47 | 35.03680 | -93.51098 | 7559 ft | 266 kts | 109° |
| 2026-04-14 02:47 | 35.03177 | -93.48934 | 7561 ft | 266 kts | 109° |
| 2026-04-14 02:48 | 35.02669 | -93.46762 | 7564 ft | 265 kts | 109° |
| 2026-04-14 02:48 | 35.02164 | -93.44598 | 7564 ft | 265 kts | 109° |
| 2026-04-14 02:48 | 35.01657 | -93.42421 | 7565 ft | 265 kts | 109° |
| 2026-04-14 02:48 | 35.01155 | -93.40279 | 7568 ft | 265 kts | 109° |
| 2026-04-14 02:49 | 35.00649 | -93.38119 | 7569 ft | 265 kts | 109° |
| 2026-04-14 02:49 | 35.00145 | -93.35970 | 7571 ft | 265 kts | 109° |
| 2026-04-14 02:49 | 34.99781 | -93.34418 | 7569 ft | 265 kts | 109° |
| 2026-04-14 02:50 | 34.99352 | -93.32561 | 7541 ft | 266 kts | 110° |
| 2026-04-14 02:50 | 34.98831 | -93.30359 | 7541 ft | 271 kts | 110° |
| 2026-04-14 02:50 | 34.98307 | -93.28127 | 7544 ft | 277 kts | 110° |
| 2026-04-14 02:51 | 34.97772 | -93.25863 | 7546 ft | 281 kts | 109° |
| 2026-04-14 02:51 | 34.97232 | -93.23563 | 7546 ft | 283 kts | 109° |
| 2026-04-14 02:51 | 34.96689 | -93.21256 | 7547 ft | 284 kts | 110° |
| 2026-04-14 02:51 | 34.96147 | -93.18957 | 7556 ft | 284 kts | 110° |
| 2026-04-14 02:52 | 34.95602 | -93.16644 | 7565 ft | 284 kts | 110° |
| 2026-04-14 02:52 | 34.95056 | -93.14333 | 7568 ft | 283 kts | 110° |
| 2026-04-14 02:52 | 34.94515 | -93.12051 | 7570 ft | 283 kts | 110° |
| 2026-04-14 02:52 | 34.93969 | -93.09724 | 7569 ft | 284 kts | 108° |
| 2026-04-14 02:53 | 34.94040 | -93.07350 | 7592 ft | 289 kts | 78° |
| 2026-04-14 02:53 | 34.94486 | -93.04934 | 7575 ft | 290 kts | 78° |
| 2026-04-14 02:53 | 34.94937 | -93.02566 | 7573 ft | 290 kts | 78° |
| 2026-04-14 02:53 | 34.95390 | -93.00178 | 7578 ft | 290 kts | 78° |
| 2026-04-14 02:54 | 34.95840 | -92.97799 | 7576 ft | 288 kts | 78° |
| 2026-04-14 02:54 | 34.96291 | -92.95427 | 7567 ft | 281 kts | 78° |
| 2026-04-14 02:54 | 34.96725 | -92.93143 | 7567 ft | 276 kts | 78° |
| 2026-04-14 02:54 | 34.97153 | -92.90892 | 7567 ft | 273 kts | 79° |
| 2026-04-14 02:55 | 34.97580 | -92.88645 | 7564 ft | 271 kts | 79° |
| 2026-04-14 02:55 | 34.98010 | -92.86387 | 7565 ft | 270 kts | 79° |
| 2026-04-14 02:55 | 34.98433 | -92.84159 | 7568 ft | 269 kts | 79° |
| 2026-04-14 02:55 | 34.98583 | -92.83369 | 7568 ft | 269 kts | 79° |